createdAt,value
2018-09-18T09:17:05.852Z,8.33
2018-09-18T09:19:34.399Z,8.43
2018-09-18T09:22:03.041Z,7.57
2018-09-18T09:24:31.562Z,7.73
2018-09-18T09:27:00.123Z,7.63
2018-09-18T09:29:28.750Z,8.13
2018-09-18T09:31:57.548Z,7.63
2018-09-18T09:34:26.228Z,7.93
2018-09-18T09:36:54.908Z,7.37
2018-09-18T09:39:23.526Z,7.77
2018-09-18T09:41:52.068Z,7.60
2018-09-18T09:44:20.645Z,7.27
2018-09-18T09:46:49.276Z,7.50
2018-09-18T09:49:17.809Z,7.07
2018-09-18T09:51:46.332Z,7.03
2018-09-18T09:54:14.994Z,7.00
2018-09-18T09:56:43.556Z,6.73
2018-09-18T09:59:12.147Z,11.37
2018-09-18T10:01:47.857Z,8.83
2018-09-18T10:04:16.929Z,6.47
2018-09-18T10:06:45.525Z,8.03
2018-09-18T10:09:14.348Z,9.03
2018-09-18T10:11:42.875Z,7.67
2018-09-18T10:14:11.744Z,6.90
2018-09-18T10:16:40.974Z,7.23
2018-09-18T10:19:09.685Z,6.80
2018-09-18T10:21:38.256Z,7.67
2018-09-18T10:24:06.558Z,10.23
2018-09-18T10:26:35.385Z,7.00
2018-09-18T10:29:03.886Z,6.13
2018-09-18T10:31:32.658Z,7.13
2018-09-18T10:34:01.218Z,7.40
2018-09-18T10:36:29.800Z,7.70
2018-09-18T10:38:58.408Z,6.70
2018-09-18T10:41:27.441Z,6.37
2018-09-18T10:43:55.912Z,6.40
2018-09-18T10:46:24.492Z,6.73
2018-09-18T10:48:55.857Z,6.77
2018-09-18T10:51:24.739Z,7.10
2018-09-18T10:53:53.553Z,7.00
2018-09-18T10:56:22.556Z,6.40
2018-09-18T10:58:51.508Z,6.90
2018-09-18T11:01:20.434Z,7.90
2018-09-18T11:03:48.999Z,6.23
2018-09-18T11:06:17.622Z,7.47
2018-09-18T11:08:46.311Z,7.70
2018-09-18T11:11:14.902Z,7.90
2018-09-18T11:13:43.446Z,6.77
2018-09-18T11:16:12.158Z,7.33
2018-09-18T11:18:40.600Z,7.67
2018-09-18T11:21:09.212Z,6.67
2018-09-18T11:23:37.804Z,7.70
2018-09-18T11:26:06.426Z,9.10
2018-09-18T11:28:35.149Z,7.40
2018-09-18T11:31:03.821Z,7.07
2018-09-18T11:33:32.390Z,8.17
2018-09-18T11:36:00.975Z,6.60
2018-09-18T11:38:29.568Z,7.10
2018-09-18T11:40:58.141Z,6.93
2018-09-18T11:43:26.711Z,7.33
2018-09-18T11:45:55.574Z,7.40
2018-09-18T11:48:23.983Z,7.40
2018-09-18T11:50:52.536Z,6.53
2018-09-18T11:53:21.880Z,8.20
2018-09-18T11:55:50.443Z,7.30
2018-09-18T11:58:19.305Z,7.60
2018-09-18T12:00:48.130Z,7.87
2018-09-18T12:03:16.740Z,7.73
2018-09-18T12:05:45.263Z,7.73
2018-09-18T12:08:13.799Z,9.20
2018-09-18T12:10:42.468Z,8.07
2018-09-18T12:13:11.375Z,7.70
2018-09-18T12:15:39.936Z,7.60
2018-09-18T12:18:08.477Z,6.63
2018-09-18T12:20:37.250Z,7.73
2018-09-18T12:23:05.803Z,6.23
2018-09-18T12:25:34.385Z,6.60
2018-09-18T12:28:02.964Z,6.90
2018-09-18T12:30:31.520Z,11.13
2018-09-18T12:33:00.069Z,6.70
2018-09-18T12:35:28.633Z,7.27
2018-09-18T12:37:57.242Z,7.37
2018-09-18T12:40:25.796Z,7.40
2018-09-18T12:42:54.342Z,7.07
2018-09-18T12:45:23.000Z,8.97
2018-09-18T12:47:51.594Z,6.20
2018-09-18T12:50:20.297Z,6.83
2018-09-18T12:52:48.701Z,6.57
2018-09-18T12:55:18.244Z,7.80
2018-09-18T12:57:46.879Z,8.00
2018-09-18T13:00:15.447Z,7.80
2018-09-18T13:02:43.965Z,6.80
2018-09-18T13:05:13.365Z,7.63
2018-09-18T13:07:41.940Z,6.70
2018-09-18T13:10:10.495Z,8.03
2018-09-18T13:12:39.031Z,7.30
2018-09-18T13:15:07.727Z,7.60
2018-09-18T13:17:36.408Z,7.70
2018-09-18T13:20:05.277Z,7.87
2018-09-18T13:22:34.020Z,7.83
2018-09-18T13:25:02.611Z,7.27
2018-09-18T13:27:31.305Z,8.73
2018-09-18T13:29:59.900Z,7.47
2018-09-18T13:32:28.455Z,7.00
2018-09-18T13:34:57.003Z,7.97
2018-09-18T13:37:25.535Z,8.67
2018-09-18T13:39:54.094Z,7.23
2018-09-18T13:42:22.667Z,7.17
2018-09-18T13:44:51.323Z,7.00
2018-09-18T13:47:19.886Z,7.30
2018-09-18T13:49:48.480Z,7.73
2018-09-18T13:52:17.078Z,7.87
2018-09-18T13:54:45.647Z,8.67
2018-09-18T13:57:14.422Z,9.20
2018-09-18T14:02:33.283Z,8.20
2018-09-18T14:05:01.849Z,7.63
2018-09-18T14:07:30.400Z,6.70
2018-09-18T14:09:59.040Z,7.70
2018-09-18T14:12:27.721Z,8.43
2018-09-18T14:14:56.346Z,8.23
2018-09-18T14:17:24.843Z,8.40
2018-09-18T14:19:53.386Z,7.60
2018-09-18T14:22:22.057Z,7.93
2018-09-18T14:24:50.588Z,8.13
2018-09-18T14:27:19.203Z,8.10
2018-09-18T14:29:47.756Z,11.50
2018-09-18T14:32:16.444Z,7.87
2018-09-18T14:34:45.030Z,8.47
2018-09-18T14:37:13.922Z,9.30
2018-09-18T14:39:42.498Z,8.83
2018-09-18T14:42:11.065Z,8.33
2018-09-18T14:44:39.659Z,9.40
2018-09-18T14:47:08.210Z,8.47
2018-09-18T14:49:36.772Z,9.07
2018-09-18T14:52:05.386Z,11.17
2018-09-18T14:54:34.065Z,7.27
2018-09-18T14:57:02.617Z,8.27
2018-09-18T14:59:31.316Z,9.30
2018-09-18T15:01:59.920Z,9.00
2018-09-18T15:04:28.481Z,8.83
2018-09-18T15:09:47.897Z,8.23
2018-09-18T15:12:16.460Z,7.77
2018-09-18T15:14:45.092Z,8.73
2018-09-18T15:17:13.844Z,8.60
2018-09-18T15:19:42.364Z,8.17
2018-09-18T15:22:10.892Z,9.37
2018-09-18T15:24:39.444Z,9.53
2018-09-18T15:27:07.989Z,9.60
2018-09-18T15:29:36.627Z,8.33
2018-09-18T15:32:05.177Z,9.50
2018-09-18T15:34:34.028Z,8.37
2018-09-18T15:37:02.685Z,8.10
2018-09-18T15:39:31.260Z,9.40
2018-09-18T15:41:59.836Z,8.00
2018-09-18T15:44:28.402Z,9.63
2018-09-18T15:46:57.023Z,10.40
2018-09-18T15:49:25.624Z,7.63
2018-09-18T15:54:44.509Z,7.30
2018-09-18T15:57:13.245Z,15.50
2018-09-18T15:59:41.846Z,8.10
2018-09-18T16:02:10.821Z,8.73
2018-09-18T16:04:39.356Z,7.60
2018-09-18T16:07:07.944Z,7.73
2018-09-18T16:09:36.579Z,8.03
2018-09-18T16:12:05.151Z,7.90
2018-09-18T16:14:33.795Z,7.47
2018-09-18T16:17:02.905Z,14.10
2018-09-18T16:22:34.649Z,11.50
2018-09-18T16:25:03.260Z,7.63
2018-09-18T16:27:31.816Z,8.33
2018-09-18T16:30:00.476Z,7.87
2018-09-18T16:32:29.061Z,8.50
2018-09-18T16:34:57.640Z,9.00
2018-09-18T16:37:26.196Z,9.30
2018-09-18T16:39:54.772Z,10.43
2018-09-18T16:42:25.604Z,11.13
2018-09-18T16:44:54.157Z,17.17
2018-09-18T16:47:22.731Z,11.60
2018-09-18T16:49:51.269Z,10.17
2018-09-18T16:52:20.676Z,35.23
2018-09-18T16:54:49.430Z,41.00
2018-09-18T16:57:18.000Z,20.33
2018-09-18T16:59:46.912Z,16.50
2018-09-18T17:02:15.496Z,23.33
2018-09-18T17:04:44.033Z,23.00
2018-09-18T17:07:13.057Z,10.97
2018-09-18T17:09:41.628Z,16.53
2018-09-18T17:12:10.275Z,16.03
2018-09-18T17:14:38.825Z,10.87
2018-09-18T17:17:07.447Z,59.53
2018-09-18T17:22:26.314Z,19.10
2018-09-18T17:24:54.882Z,23.30
2018-09-18T17:27:23.454Z,10.80
2018-09-18T17:29:51.992Z,13.93
2018-09-18T17:32:20.591Z,12.40
2018-09-18T17:34:49.407Z,11.73
2018-09-18T17:37:17.957Z,20.70
2018-09-18T17:39:47.362Z,32.43
2018-09-18T17:42:15.977Z,18.67
2018-09-18T17:44:44.604Z,15.33
2018-09-18T17:47:13.587Z,14.17
2018-09-18T17:49:42.150Z,13.13
2018-09-18T17:52:10.914Z,16.20
2018-09-18T17:54:39.489Z,12.70
2018-09-18T17:57:08.085Z,11.23
2018-09-18T17:59:38.109Z,15.27
2018-09-18T18:02:07.824Z,13.20
2018-09-18T18:04:36.388Z,12.43
2018-09-18T18:07:05.073Z,15.40
2018-09-18T18:09:33.608Z,16.90
2018-09-18T18:12:05.211Z,11.90
2018-09-18T18:14:33.846Z,14.43
2018-09-18T18:17:05.034Z,16.40
2018-09-18T18:19:33.707Z,10.47
2018-09-18T18:22:02.315Z,16.93
2018-09-18T18:24:30.907Z,14.30
2018-09-18T18:26:59.535Z,16.63
2018-09-18T18:29:28.147Z,13.13
2018-09-18T18:31:56.808Z,15.80
2018-09-18T18:34:25.450Z,12.60
2018-09-18T18:36:54.053Z,11.67
2018-09-18T18:39:22.656Z,16.87
2018-09-18T18:41:51.376Z,13.40
2018-09-18T18:44:19.946Z,14.83
2018-09-18T18:46:48.532Z,13.50
2018-09-18T18:49:17.385Z,14.03
2018-09-18T18:51:45.905Z,13.03
2018-09-18T18:54:14.468Z,16.90
2018-09-18T18:56:43.190Z,15.43
2018-09-18T18:59:11.715Z,11.63
2018-09-18T19:01:40.394Z,14.60
2018-09-18T19:04:08.957Z,14.53
2018-09-18T19:06:37.550Z,12.03
2018-09-18T19:09:09.723Z,11.90
2018-09-18T19:11:38.543Z,14.27
2018-09-18T19:14:07.120Z,13.20
2018-09-18T19:16:35.778Z,17.10
2018-09-18T19:19:04.512Z,14.10
2018-09-18T19:21:33.048Z,17.17
2018-09-18T19:24:01.599Z,15.60
2018-09-18T19:26:30.272Z,17.27
2018-09-18T19:28:58.859Z,18.67
2018-09-18T19:31:27.604Z,14.97
2018-09-18T19:33:56.211Z,14.13
2018-09-18T19:36:24.873Z,14.13
2018-09-18T19:38:53.539Z,14.00
2018-09-18T19:41:22.101Z,13.63
2018-09-18T19:43:50.705Z,14.03
2018-09-18T19:46:19.249Z,13.97
2018-09-18T19:48:47.798Z,18.60
2018-09-18T19:51:16.435Z,13.47
2018-09-18T19:53:45.047Z,16.60
2018-09-18T19:56:13.752Z,17.83
2018-09-18T19:58:43.247Z,14.77
2018-09-18T20:01:11.800Z,15.57
2018-09-18T20:03:40.391Z,16.07
2018-09-18T20:06:08.948Z,16.20
2018-09-18T20:08:37.502Z,14.47
2018-09-18T20:11:06.140Z,15.70
2018-09-18T20:13:34.766Z,13.83
2018-09-18T20:16:03.566Z,11.93
2018-09-18T20:18:32.205Z,12.57
2018-09-18T20:21:00.775Z,16.17
2018-09-18T20:23:29.295Z,11.67
2018-09-18T20:25:57.854Z,17.03
2018-09-18T20:28:26.505Z,18.83
2018-09-18T20:30:55.112Z,13.93
2018-09-18T20:33:23.731Z,14.63
2018-09-18T20:35:52.388Z,12.73
2018-09-18T20:38:20.986Z,14.27
2018-09-18T20:40:49.647Z,13.93
2018-09-18T20:43:18.437Z,13.50
2018-09-18T20:45:47.007Z,16.83
2018-09-18T20:48:15.608Z,13.03
2018-09-18T20:50:44.327Z,15.70
2018-09-18T20:53:16.121Z,18.20
2018-09-18T20:55:44.989Z,12.77
2018-09-18T20:58:13.564Z,13.97
2018-09-18T21:00:42.129Z,11.93
2018-09-18T21:03:10.879Z,12.00
2018-09-18T21:05:39.481Z,15.47
2018-09-18T21:08:08.060Z,14.40
2018-09-18T21:10:36.606Z,13.10
2018-09-18T21:13:05.327Z,12.73
2018-09-18T21:15:34.017Z,12.50
2018-09-18T21:18:02.676Z,12.83
2018-09-18T21:20:31.264Z,13.60
2018-09-18T21:22:59.840Z,14.10
2018-09-18T21:26:17.964Z,12.90
2018-09-18T21:28:46.524Z,13.73
2018-09-18T21:34:06.661Z,13.63
2018-09-18T21:36:36.027Z,12.10
2018-09-18T21:39:07.489Z,12.13
2018-09-18T21:41:36.153Z,13.00
2018-09-18T21:44:04.768Z,13.73
2018-09-18T21:46:33.342Z,17.37
2018-09-18T21:49:01.956Z,12.00
2018-09-18T21:51:30.558Z,12.83
2018-09-18T21:53:59.159Z,13.00
2018-09-18T21:56:27.712Z,12.40
2018-09-18T21:58:56.246Z,17.93
2018-09-18T22:01:41.053Z,13.70
2018-09-18T22:04:16.434Z,15.67
2018-09-18T22:06:45.086Z,14.20
2018-09-18T22:09:13.916Z,14.57
2018-09-18T22:11:42.543Z,13.20
2018-09-18T22:14:11.095Z,15.93
2018-09-18T22:16:39.798Z,19.97
2018-09-18T22:27:52.136Z,15.03
2018-09-18T22:30:20.779Z,16.23
2018-09-18T22:32:49.321Z,13.03
2018-09-18T22:35:18.296Z,13.17
2018-09-18T22:37:46.900Z,13.07
2018-09-18T22:40:15.472Z,12.90
2018-09-18T22:42:44.028Z,10.50
2018-09-18T22:45:12.612Z,13.40
2018-09-18T22:47:41.140Z,14.90
2018-09-18T22:50:09.753Z,17.50
2018-09-18T22:52:38.277Z,14.90
2018-09-18T22:55:06.907Z,15.33
2018-09-18T22:57:35.558Z,15.10
2018-09-18T23:00:04.446Z,15.23
2018-09-18T23:02:33.034Z,14.40
2018-09-18T23:05:02.221Z,14.43
2018-09-18T23:07:30.818Z,15.27
2018-09-18T23:09:59.647Z,13.77
2018-09-18T23:12:28.245Z,15.70
2018-09-18T23:14:56.867Z,14.07
2018-09-18T23:17:25.658Z,14.80
2018-09-18T23:19:54.408Z,15.30
2018-09-18T23:22:23.455Z,16.27
2018-09-18T23:24:52.155Z,16.97
2018-09-18T23:27:20.779Z,15.07
2018-09-18T23:29:49.480Z,15.50
2018-09-18T23:32:18.267Z,16.33
2018-09-18T23:34:46.841Z,15.20
2018-09-18T23:37:15.669Z,17.60
2018-09-18T23:39:44.258Z,14.00
2018-09-18T23:42:12.908Z,17.10
2018-09-18T23:44:41.490Z,13.53
2018-09-18T23:47:10.273Z,13.97
2018-09-18T23:49:38.987Z,18.03
2018-09-18T23:52:07.686Z,15.33
2018-09-18T23:54:36.267Z,13.83
2018-09-18T23:57:04.865Z,16.17
2018-09-18T23:59:34.195Z,15.57
